Jefferson City, Montana
Current Conditions -  °F | °C
As of 10:53 AM on Friday 28 Nov 2014 (Local Time) from KHLN Reporting Station
Broken Clouds Broken Clouds  
Wind Chill: 45°   Ceiling: 5000
Heat Index: 45°   Visibility: 10mi
Dew Point: 35°   Wind: 3mph
Humidity: 68%   Direction: NA
Pressure: 29.6"   Gusts: NA
Location:  46.39°N, 112.03°W
Report Text: KHLN 281753Z VRB03KT 10SM BKN050 07/02 A2960 RMK AO2 SLP036 T00720017 10100 20050 58014
Loading
Personal Weather Stations






























Interactive Weather Map New forecast layout! Learn more

10-Day Weather Forecast

Advertisements
Track Severe Weather on mobile